sensor_id;sensor_type;location;lat;lon;timestamp;temperature;humidity
5848;DHT22;8756;49.29324300;8.70599800;2023-01-15T00:01:20;10.70;99.90
5848;DHT22;8756;49.29324300;8.70599800;2023-01-15T00:03:47;10.70;99.90
5848;DHT22;8756;49.29324300;8.70599800;2023-01-15T00:06:14;10.80;99.90
5848;DHT22;8756;49.29324300;8.70599800;2023-01-15T00:08:46;10.70;99.90
5848;DHT22;8756;49.29324300;8.70599800;2023-01-15T00:11:12;10.80;99.90
5848;DHT22;8756;49.29324300;8.70599800;2023-01-15T00:13:38;10.70;99.90
5848;DHT22;8756;49.29324300;8.70599800;2023-01-15T00:16:26;10.80;99.90
5848;DHT22;8756;49.29324300;8.70599800;2023-01-15T00:18:58;10.80;99.90
5848;DHT22;8756;49.29324300;8.70599800;2023-01-15T00:21:26;10.80;99.90
5848;DHT22;8756;49.29324300;8.70599800;2023-01-15T00:23:54;10.80;99.90
5848;DHT22;8756;49.29324300;8.70599800;2023-01-15T00:26:39;10.80;99.90
5848;DHT22;8756;49.29324300;8.70599800;2023-01-15T00:29:24;10.70;99.90
5848;DHT22;8756;49.29324300;8.70599800;2023-01-15T00:32:10;10.70;99.90
5848;DHT22;8756;49.29324300;8.70599800;2023-01-15T00:34:36;10.70;99.90
5848;DHT22;8756;49.29324300;8.70599800;2023-01-15T00:37:02;10.70;99.90
5848;DHT22;8756;49.29324300;8.70599800;2023-01-15T00:39:28;10.70;99.90
5848;DHT22;8756;49.29324300;8.70599800;2023-01-15T00:41:55;10.70;99.90
5848;DHT22;8756;49.29324300;8.70599800;2023-01-15T00:44:22;10.70;99.90
5848;DHT22;8756;49.29324300;8.70599800;2023-01-15T00:46:48;10.70;99.90
5848;DHT22;8756;49.29324300;8.70599800;2023-01-15T00:49:14;10.70;99.90
5848;DHT22;8756;49.29324300;8.70599800;2023-01-15T00:51:40;10.70;99.90
5848;DHT22;8756;49.29324300;8.70599800;2023-01-15T00:54:06;10.70;99.90
5848;DHT22;8756;49.29324300;8.70599800;2023-01-15T00:56:31;10.70;99.90
5848;DHT22;8756;49.29324300;8.70599800;2023-01-15T00:58:59;10.70;99.90
5848;DHT22;8756;49.29324300;8.70599800;2023-01-15T01:01:26;10.70;99.90
5848;DHT22;8756;49.29324300;8.70599800;2023-01-15T01:03:51;10.70;99.90
5848;DHT22;8756;49.29324300;8.70599800;2023-01-15T01:06:19;10.60;99.90
5848;DHT22;8756;49.29324300;8.70599800;2023-01-15T01:08:45;10.70;99.90
5848;DHT22;8756;49.29324300;8.70599800;2023-01-15T01:11:15;10.70;99.90
5848;DHT22;8756;49.29324300;8.70599800;2023-01-15T01:13:43;10.70;99.90
5848;DHT22;8756;49.29324300;8.70599800;2023-01-15T01:16:28;10.70;99.90
5848;DHT22;8756;49.29324300;8.70599800;2023-01-15T01:19:01;10.70;99.90
5848;DHT22;8756;49.29324300;8.70599800;2023-01-15T01:21:29;10.60;99.90
5848;DHT22;8756;49.29324300;8.70599800;2023-01-15T01:23:58;10.70;99.90
5848;DHT22;8756;49.29324300;8.70599800;2023-01-15T01:26:24;10.70;99.90
5848;DHT22;8756;49.29324300;8.70599800;2023-01-15T01:28:51;10.70;99.90
5848;DHT22;8756;49.29324300;8.70599800;2023-01-15T01:31:18;10.70;99.90
5848;DHT22;8756;49.29324300;8.70599800;2023-01-15T01:33:50;10.70;99.90
5848;DHT22;8756;49.29324300;8.70599800;2023-01-15T01:36:17;10.70;99.90
5848;DHT22;8756;49.29324300;8.70599800;2023-01-15T01:38:46;10.70;99.90
5848;DHT22;8756;49.29324300;8.70599800;2023-01-15T01:41:15;10.70;99.90
5848;DHT22;8756;49.29324300;8.70599800;2023-01-15T01:46:21;10.70;99.90
5848;DHT22;8756;49.29324300;8.70599800;2023-01-15T01:48:49;10.70;99.90
5848;DHT22;8756;49.29324300;8.70599800;2023-01-15T01:51:19;10.70;99.90
5848;DHT22;8756;49.29324300;8.70599800;2023-01-15T01:53:47;10.70;99.90
5848;DHT22;8756;49.29324300;8.70599800;2023-01-15T01:56:13;10.70;99.90
5848;DHT22;8756;49.29324300;8.70599800;2023-01-15T01:58:44;10.80;99.90
5848;DHT22;8756;49.29324300;8.70599800;2023-01-15T02:01:13;10.80;99.90
5848;DHT22;8756;49.29324300;8.70599800;2023-01-15T02:03:39;10.80;99.90
5848;DHT22;8756;49.29324300;8.70599800;2023-01-15T02:06:09;10.80;99.90
5848;DHT22;8756;49.29324300;8.70599800;2023-01-15T02:08:35;10.70;99.90
5848;DHT22;8756;49.29324300;8.70599800;2023-01-15T02:11:04;10.80;99.90
5848;DHT22;8756;49.29324300;8.70599800;2023-01-15T02:13:38;10.70;99.90
5848;DHT22;8756;49.29324300;8.70599800;2023-01-15T02:16:21;10.70;99.90
5848;DHT22;8756;49.29324300;8.70599800;2023-01-15T02:27:11;10.70;99.90
5848;DHT22;8756;49.29324300;8.70599800;2023-01-15T02:30:08;10.70;99.90
5848;DHT22;8756;49.29324300;8.70599800;2023-01-15T02:32:51;10.70;99.90
5848;DHT22;8756;49.29324300;8.70599800;2023-01-15T02:35:40;10.70;99.90
5848;DHT22;8756;49.29324300;8.70599800;2023-01-15T02:38:16;10.60;99.90
5848;DHT22;8756;49.29324300;8.70599800;2023-01-15T02:40:45;10.70;99.90
5848;DHT22;8756;49.29324300;8.70599800;2023-01-15T02:43:13;10.60;99.90
5848;DHT22;8756;49.29324300;8.70599800;2023-01-15T02:45:42;10.60;99.90
5848;DHT22;8756;49.29324300;8.70599800;2023-01-15T02:48:15;10.60;99.90
5848;DHT22;8756;49.29324300;8.70599800;2023-01-15T02:50:50;10.60;99.90
5848;DHT22;8756;49.29324300;8.70599800;2023-01-15T02:53:24;10.60;99.90
5848;DHT22;8756;49.29324300;8.70599800;2023-01-15T02:55:54;10.60;99.90
5848;DHT22;8756;49.29324300;8.70599800;2023-01-15T02:58:27;10.60;99.90
5848;DHT22;8756;49.29324300;8.70599800;2023-01-15T03:00:55;10.60;99.90
5848;DHT22;8756;49.29324300;8.70599800;2023-01-15T03:03:41;10.60;99.90
5848;DHT22;8756;49.29324300;8.70599800;2023-01-15T03:06:24;10.60;99.90
5848;DHT22;8756;49.29324300;8.70599800;2023-01-15T03:08:54;10.70;99.90
5848;DHT22;8756;49.29324300;8.70599800;2023-01-15T03:11:19;10.70;99.90
5848;DHT22;8756;49.29324300;8.70599800;2023-01-15T03:14:07;10.60;99.90
5848;DHT22;8756;49.29324300;8.70599800;2023-01-15T03:16:46;10.60;99.90
5848;DHT22;8756;49.29324300;8.70599800;2023-01-15T03:19:28;10.70;99.90
5848;DHT22;8756;49.29324300;8.70599800;2023-01-15T03:22:12;10.70;99.90
5848;DHT22;8756;49.29324300;8.70599800;2023-01-15T03:25:06;10.70;99.90
5848;DHT22;8756;49.29324300;8.70599800;2023-01-15T03:27:34;10.70;99.90
5848;DHT22;8756;49.29324300;8.70599800;2023-01-15T03:30:20;10.60;99.90
5848;DHT22;8756;49.29324300;8.70599800;2023-01-15T03:32:47;10.60;99.90
5848;DHT22;8756;49.29324300;8.70599800;2023-01-15T03:38:19;10.50;99.90
5848;DHT22;8756;49.29324300;8.70599800;2023-01-15T03:43:37;10.40;99.90
5848;DHT22;8756;49.29324300;8.70599800;2023-01-15T03:50:04;10.30;99.90
5848;DHT22;8756;49.29324300;8.70599800;2023-01-15T03:52:58;10.30;99.90
5848;DHT22;8756;49.29324300;8.70599800;2023-01-15T03:55:49;10.20;99.90
5848;DHT22;8756;49.29324300;8.70599800;2023-01-15T04:01:04;9.80;99.90
5848;DHT22;8756;49.29324300;8.70599800;2023-01-15T04:03:35;9.60;99.90
5848;DHT22;8756;49.29324300;8.70599800;2023-01-15T04:06:03;9.50;99.90
5848;DHT22;8756;49.29324300;8.70599800;2023-01-15T04:08:33;9.30;99.90
5848;DHT22;8756;49.29324300;8.70599800;2023-01-15T04:11:02;9.20;99.90
5848;DHT22;8756;49.29324300;8.70599800;2023-01-15T04:13:28;9.00;99.90
5848;DHT22;8756;49.29324300;8.70599800;2023-01-15T04:15:54;8.90;99.90
5848;DHT22;8756;49.29324300;8.70599800;2023-01-15T04:18:20;8.80;99.90
5848;DHT22;8756;49.29324300;8.70599800;2023-01-15T04:20:47;8.80;99.90
5848;DHT22;8756;49.29324300;8.70599800;2023-01-15T04:23:13;8.80;99.90
5848;DHT22;8756;49.29324300;8.70599800;2023-01-15T04:25:40;8.70;99.90
5848;DHT22;8756;49.29324300;8.70599800;2023-01-15T04:28:06;8.70;99.90
5848;DHT22;8756;49.29324300;8.70599800;2023-01-15T04:30:34;8.70;99.90
5848;DHT22;8756;49.29324300;8.70599800;2023-01-15T04:33:00;8.70;99.90
5848;DHT22;8756;49.29324300;8.70599800;2023-01-15T04:35:26;8.70;99.90
5848;DHT22;8756;49.29324300;8.70599800;2023-01-15T04:37:59;8.60;99.90
5848;DHT22;8756;49.29324300;8.70599800;2023-01-15T04:40:25;8.60;99.90
5848;DHT22;8756;49.29324300;8.70599800;2023-01-15T04:43:11;8.60;99.90
5848;DHT22;8756;49.29324300;8.70599800;2023-01-15T04:45:56;8.60;99.90
5848;DHT22;8756;49.29324300;8.70599800;2023-01-15T04:48:24;8.50;99.90
5848;DHT22;8756;49.29324300;8.70599800;2023-01-15T04:50:50;8.50;99.90
5848;DHT22;8756;49.29324300;8.70599800;2023-01-15T04:53:15;8.50;99.90
5848;DHT22;8756;49.29324300;8.70599800;2023-01-15T04:55:41;8.50;99.90
5848;DHT22;8756;49.29324300;8.70599800;2023-01-15T04:58:07;8.50;99.90
5848;DHT22;8756;49.29324300;8.70599800;2023-01-15T05:00:33;8.50;99.90
5848;DHT22;8756;49.29324300;8.70599800;2023-01-15T05:02:58;8.50;99.90
5848;DHT22;8756;49.29324300;8.70599800;2023-01-15T05:05:24;8.50;99.90
5848;DHT22;8756;49.29324300;8.70599800;2023-01-15T05:07:50;8.50;99.90
5848;DHT22;8756;49.29324300;8.70599800;2023-01-15T05:10:15;8.50;99.90
5848;DHT22;8756;49.29324300;8.70599800;2023-01-15T05:12:41;8.50;99.90
5848;DHT22;8756;49.29324300;8.70599800;2023-01-15T05:15:07;8.40;99.90
5848;DHT22;8756;49.29324300;8.70599800;2023-01-15T05:17:33;8.40;99.90
5848;DHT22;8756;49.29324300;8.70599800;2023-01-15T05:19:59;8.40;99.90
5848;DHT22;8756;49.29324300;8.70599800;2023-01-15T05:22:24;8.40;99.90
5848;DHT22;8756;49.29324300;8.70599800;2023-01-15T05:24:50;8.40;99.90
5848;DHT22;8756;49.29324300;8.70599800;2023-01-15T05:27:16;8.30;99.90
5848;DHT22;8756;49.29324300;8.70599800;2023-01-15T05:29:42;8.30;99.90
5848;DHT22;8756;49.29324300;8.70599800;2023-01-15T05:32:08;8.30;99.90
5848;DHT22;8756;49.29324300;8.70599800;2023-01-15T05:34:33;8.30;99.90
5848;DHT22;8756;49.29324300;8.70599800;2023-01-15T05:36:59;8.30;99.90
5848;DHT22;8756;49.29324300;8.70599800;2023-01-15T05:39:25;8.30;99.90
5848;DHT22;8756;49.29324300;8.70599800;2023-01-15T05:41:51;8.30;99.90
5848;DHT22;8756;49.29324300;8.70599800;2023-01-15T05:44:28;8.30;99.90
5848;DHT22;8756;49.29324300;8.70599800;2023-01-15T05:46:56;8.30;99.90
5848;DHT22;8756;49.29324300;8.70599800;2023-01-15T05:49:25;8.30;99.90
5848;DHT22;8756;49.29324300;8.70599800;2023-01-15T05:51:52;8.30;99.90
5848;DHT22;8756;49.29324300;8.70599800;2023-01-15T05:54:26;8.20;99.90
5848;DHT22;8756;49.29324300;8.70599800;2023-01-15T05:56:54;8.20;99.90
5848;DHT22;8756;49.29324300;8.70599800;2023-01-15T05:59:22;8.20;99.90
5848;DHT22;8756;49.29324300;8.70599800;2023-01-15T06:01:49;8.10;99.90
5848;DHT22;8756;49.29324300;8.70599800;2023-01-15T06:04:15;8.10;99.90
5848;DHT22;8756;49.29324300;8.70599800;2023-01-15T06:06:45;8.10;99.90
5848;DHT22;8756;49.29324300;8.70599800;2023-01-15T06:09:11;8.00;99.90
5848;DHT22;8756;49.29324300;8.70599800;2023-01-15T06:11:37;7.90;99.90
5848;DHT22;8756;49.29324300;8.70599800;2023-01-15T06:14:03;7.90;99.90
5848;DHT22;8756;49.29324300;8.70599800;2023-01-15T06:16:29;7.90;99.90
5848;DHT22;8756;49.29324300;8.70599800;2023-01-15T06:18:59;7.90;99.90
5848;DHT22;8756;49.29324300;8.70599800;2023-01-15T06:21:25;7.80;99.90
5848;DHT22;8756;49.29324300;8.70599800;2023-01-15T06:23:52;7.80;99.90
5848;DHT22;8756;49.29324300;8.70599800;2023-01-15T06:26:18;7.90;99.90
5848;DHT22;8756;49.29324300;8.70599800;2023-01-15T06:28:45;7.80;99.90
5848;DHT22;8756;49.29324300;8.70599800;2023-01-15T06:31:14;7.90;99.90
5848;DHT22;8756;49.29324300;8.70599800;2023-01-15T06:33:41;7.90;99.90
5848;DHT22;8756;49.29324300;8.70599800;2023-01-15T06:36:10;7.90;99.90
5848;DHT22;8756;49.29324300;8.70599800;2023-01-15T06:38:47;7.80;99.90
5848;DHT22;8756;49.29324300;8.70599800;2023-01-15T06:41:21;7.80;99.90
5848;DHT22;8756;49.29324300;8.70599800;2023-01-15T06:44:11;7.80;99.90
5848;DHT22;8756;49.29324300;8.70599800;2023-01-15T06:46:57;7.80;99.90
5848;DHT22;8756;49.29324300;8.70599800;2023-01-15T06:49:46;7.80;99.90
5848;DHT22;8756;49.29324300;8.70599800;2023-01-15T06:52:12;7.90;99.90
5848;DHT22;8756;49.29324300;8.70599800;2023-01-15T06:54:38;7.90;99.90
5848;DHT22;8756;49.29324300;8.70599800;2023-01-15T06:57:04;7.90;99.90
5848;DHT22;8756;49.29324300;8.70599800;2023-01-15T06:59:30;7.90;99.90
5848;DHT22;8756;49.29324300;8.70599800;2023-01-15T07:01:56;7.90;99.90
5848;DHT22;8756;49.29324300;8.70599800;2023-01-15T07:04:22;7.90;99.90
5848;DHT22;8756;49.29324300;8.70599800;2023-01-15T07:06:48;7.90;99.90
5848;DHT22;8756;49.29324300;8.70599800;2023-01-15T07:09:14;7.80;99.90
5848;DHT22;8756;49.29324300;8.70599800;2023-01-15T07:11:39;7.80;99.90
5848;DHT22;8756;49.29324300;8.70599800;2023-01-15T07:14:24;7.80;99.90
5848;DHT22;8756;49.29324300;8.70599800;2023-01-15T07:16:52;7.80;99.90
5848;DHT22;8756;49.29324300;8.70599800;2023-01-15T07:19:18;7.70;99.90
5848;DHT22;8756;49.29324300;8.70599800;2023-01-15T07:21:45;7.70;99.90
5848;DHT22;8756;49.29324300;8.70599800;2023-01-15T07:24:11;7.70;99.90
5848;DHT22;8756;49.29324300;8.70599800;2023-01-15T07:26:37;7.60;99.90
5848;DHT22;8756;49.29324300;8.70599800;2023-01-15T07:29:03;7.60;99.90
5848;DHT22;8756;49.29324300;8.70599800;2023-01-15T07:31:30;7.60;99.90
5848;DHT22;8756;49.29324300;8.70599800;2023-01-15T07:33:56;7.60;99.90
5848;DHT22;8756;49.29324300;8.70599800;2023-01-15T07:36:22;7.50;99.90
5848;DHT22;8756;49.29324300;8.70599800;2023-01-15T07:38:48;7.50;99.90
5848;DHT22;8756;49.29324300;8.70599800;2023-01-15T07:41:16;7.50;99.90
5848;DHT22;8756;49.29324300;8.70599800;2023-01-15T07:44:00;7.50;99.90
5848;DHT22;8756;49.29324300;8.70599800;2023-01-15T07:46:44;7.40;99.90
5848;DHT22;8756;49.29324300;8.70599800;2023-01-15T07:49:29;7.40;99.90
5848;DHT22;8756;49.29324300;8.70599800;2023-01-15T07:52:12;7.40;99.90
5848;DHT22;8756;49.29324300;8.70599800;2023-01-15T07:54:39;7.30;99.90
5848;DHT22;8756;49.29324300;8.70599800;2023-01-15T07:57:05;7.30;99.90
5848;DHT22;8756;49.29324300;8.70599800;2023-01-15T07:59:31;7.20;99.90
5848;DHT22;8756;49.29324300;8.70599800;2023-01-15T08:01:57;7.20;99.90
5848;DHT22;8756;49.29324300;8.70599800;2023-01-15T08:04:23;7.10;99.90
5848;DHT22;8756;49.29324300;8.70599800;2023-01-15T08:06:49;7.10;99.90
5848;DHT22;8756;49.29324300;8.70599800;2023-01-15T08:09:15;7.00;99.90
5848;DHT22;8756;49.29324300;8.70599800;2023-01-15T08:11:41;7.00;99.90
5848;DHT22;8756;49.29324300;8.70599800;2023-01-15T08:14:25;7.00;99.90
5848;DHT22;8756;49.29324300;8.70599800;2023-01-15T08:17:09;7.00;99.90
5848;DHT22;8756;49.29324300;8.70599800;2023-01-15T08:19:35;7.00;99.90
5848;DHT22;8756;49.29324300;8.70599800;2023-01-15T08:22:00;7.00;99.90
5848;DHT22;8756;49.29324300;8.70599800;2023-01-15T08:24:27;7.00;99.90
5848;DHT22;8756;49.29324300;8.70599800;2023-01-15T08:26:53;7.00;99.90
5848;DHT22;8756;49.29324300;8.70599800;2023-01-15T08:29:20;7.00;99.90
5848;DHT22;8756;49.29324300;8.70599800;2023-01-15T08:31:46;6.90;99.90
5848;DHT22;8756;49.29324300;8.70599800;2023-01-15T08:34:12;6.90;99.90
5848;DHT22;8756;49.29324300;8.70599800;2023-01-15T08:36:38;6.90;99.90
5848;DHT22;8756;49.29324300;8.70599800;2023-01-15T08:39:04;6.90;99.90
5848;DHT22;8756;49.29324300;8.70599800;2023-01-15T08:41:30;6.90;99.90
5848;DHT22;8756;49.29324300;8.70599800;2023-01-15T08:43:56;6.90;99.90
5848;DHT22;8756;49.29324300;8.70599800;2023-01-15T08:46:22;6.90;99.90
5848;DHT22;8756;49.29324300;8.70599800;2023-01-15T08:48:47;6.90;99.90
5848;DHT22;8756;49.29324300;8.70599800;2023-01-15T08:51:13;6.90;99.90
5848;DHT22;8756;49.29324300;8.70599800;2023-01-15T08:53:39;6.90;99.90
5848;DHT22;8756;49.29324300;8.70599800;2023-01-15T08:56:16;6.80;99.90
5848;DHT22;8756;49.29324300;8.70599800;2023-01-15T08:58:43;6.80;99.90
5848;DHT22;8756;49.29324300;8.70599800;2023-01-15T09:01:10;6.80;99.90
5848;DHT22;8756;49.29324300;8.70599800;2023-01-15T09:03:40;6.80;99.90
5848;DHT22;8756;49.29324300;8.70599800;2023-01-15T09:06:07;6.80;99.90
5848;DHT22;8756;49.29324300;8.70599800;2023-01-15T09:08:33;6.80;99.90
5848;DHT22;8756;49.29324300;8.70599800;2023-01-15T09:11:01;6.70;99.90
5848;DHT22;8756;49.29324300;8.70599800;2023-01-15T09:13:28;6.80;99.90
5848;DHT22;8756;49.29324300;8.70599800;2023-01-15T09:16:02;6.80;99.90
5848;DHT22;8756;49.29324300;8.70599800;2023-01-15T09:18:30;6.70;99.90
5848;DHT22;8756;49.29324300;8.70599800;2023-01-15T09:20:56;6.70;99.90
5848;DHT22;8756;49.29324300;8.70599800;2023-01-15T09:23:22;6.70;99.90
5848;DHT22;8756;49.29324300;8.70599800;2023-01-15T09:25:56;6.70;99.90
5848;DHT22;8756;49.29324300;8.70599800;2023-01-15T09:28:23;6.70;99.90
5848;DHT22;8756;49.29324300;8.70599800;2023-01-15T09:30:49;6.70;99.90
5848;DHT22;8756;49.29324300;8.70599800;2023-01-15T09:33:15;6.70;99.90
5848;DHT22;8756;49.29324300;8.70599800;2023-01-15T09:35:42;6.70;99.90
5848;DHT22;8756;49.29324300;8.70599800;2023-01-15T09:38:11;6.70;99.90
5848;DHT22;8756;49.29324300;8.70599800;2023-01-15T09:49:01;6.70;99.90
5848;DHT22;8756;49.29324300;8.70599800;2023-01-15T09:55:04;6.60;99.90
5848;DHT22;8756;49.29324300;8.70599800;2023-01-15T09:57:35;6.60;99.90
5848;DHT22;8756;49.29324300;8.70599800;2023-01-15T10:00:03;6.60;99.90
5848;DHT22;8756;49.29324300;8.70599800;2023-01-15T10:02:33;6.60;99.90
5848;DHT22;8756;49.29324300;8.70599800;2023-01-15T10:08:03;6.60;99.90
5848;DHT22;8756;49.29324300;8.70599800;2023-01-15T10:10:40;6.60;99.90
5848;DHT22;8756;49.29324300;8.70599800;2023-01-15T10:13:26;6.60;99.90
5848;DHT22;8756;49.29324300;8.70599800;2023-01-15T10:15:56;6.60;99.90
5848;DHT22;8756;49.29324300;8.70599800;2023-01-15T10:18:23;6.60;99.90
5848;DHT22;8756;49.29324300;8.70599800;2023-01-15T10:20:59;6.60;99.90
5848;DHT22;8756;49.29324300;8.70599800;2023-01-15T10:23:36;6.60;99.90
5848;DHT22;8756;49.29324300;8.70599800;2023-01-15T10:29:19;6.60;99.90
5848;DHT22;8756;49.29324300;8.70599800;2023-01-15T10:40:39;6.50;99.90
5848;DHT22;8756;49.29324300;8.70599800;2023-01-15T10:46:35;6.40;99.90
5848;DHT22;8756;49.29324300;8.70599800;2023-01-15T10:49:13;6.40;99.90
5848;DHT22;8756;49.29324300;8.70599800;2023-01-15T10:51:52;6.40;99.90
5848;DHT22;8756;49.29324300;8.70599800;2023-01-15T10:54:41;6.40;99.90
5848;DHT22;8756;49.29324300;8.70599800;2023-01-15T11:00:57;6.40;99.90
5848;DHT22;8756;49.29324300;8.70599800;2023-01-15T11:03:52;6.40;99.90
5848;DHT22;8756;49.29324300;8.70599800;2023-01-15T11:06:20;6.40;99.90
5848;DHT22;8756;49.29324300;8.70599800;2023-01-15T11:08:50;6.40;99.90
5848;DHT22;8756;49.29324300;8.70599800;2023-01-15T11:11:34;6.40;99.90
5848;DHT22;8756;49.29324300;8.70599800;2023-01-15T11:14:39;6.40;99.90
5848;DHT22;8756;49.29324300;8.70599800;2023-01-15T11:17:48;6.40;99.90
5848;DHT22;8756;49.29324300;8.70599800;2023-01-15T11:23:18;6.30;99.90
5848;DHT22;8756;49.29324300;8.70599800;2023-01-15T11:25:50;6.30;99.90
5848;DHT22;8756;49.29324300;8.70599800;2023-01-15T11:28:38;6.30;99.90
5848;DHT22;8756;49.29324300;8.70599800;2023-01-15T11:31:06;6.30;99.90
5848;DHT22;8756;49.29324300;8.70599800;2023-01-15T11:33:33;6.30;99.90
5848;DHT22;8756;49.29324300;8.70599800;2023-01-15T11:36:02;6.30;99.90
5848;DHT22;8756;49.29324300;8.70599800;2023-01-15T11:38:50;6.20;99.90
5848;DHT22;8756;49.29324300;8.70599800;2023-01-15T11:41:33;6.30;99.90
5848;DHT22;8756;49.29324300;8.70599800;2023-01-15T11:44:25;6.30;99.90
5848;DHT22;8756;49.29324300;8.70599800;2023-01-15T11:47:11;6.30;99.90
5848;DHT22;8756;49.29324300;8.70599800;2023-01-15T11:49:56;6.30;99.90
5848;DHT22;8756;49.29324300;8.70599800;2023-01-15T11:52:44;6.30;99.90
5848;DHT22;8756;49.29324300;8.70599800;2023-01-15T11:55:13;6.30;99.90
5848;DHT22;8756;49.29324300;8.70599800;2023-01-15T11:57:41;6.30;99.90
5848;DHT22;8756;49.29324300;8.70599800;2023-01-15T12:00:19;6.20;99.90
5848;DHT22;8756;49.29324300;8.70599800;2023-01-15T12:02:48;6.20;99.90
5848;DHT22;8756;49.29324300;8.70599800;2023-01-15T12:05:21;6.20;99.90
5848;DHT22;8756;49.29324300;8.70599800;2023-01-15T12:07:51;6.20;99.90
5848;DHT22;8756;49.29324300;8.70599800;2023-01-15T12:10:28;6.20;99.90
5848;DHT22;8756;49.29324300;8.70599800;2023-01-15T12:13:42;6.10;99.90
5848;DHT22;8756;49.29324300;8.70599800;2023-01-15T12:16:51;6.20;99.90
5848;DHT22;8756;49.29324300;8.70599800;2023-01-15T12:22:23;6.20;99.90
5848;DHT22;8756;49.29324300;8.70599800;2023-01-15T12:25:36;6.20;99.90
5848;DHT22;8756;49.29324300;8.70599800;2023-01-15T12:31:01;6.10;99.90
5848;DHT22;8756;49.29324300;8.70599800;2023-01-15T12:33:45;6.10;99.90
5848;DHT22;8756;49.29324300;8.70599800;2023-01-15T12:38:59;6.10;99.90
5848;DHT22;8756;49.29324300;8.70599800;2023-01-15T12:41:38;6.10;99.90
5848;DHT22;8756;49.29324300;8.70599800;2023-01-15T12:44:41;6.20;99.90
5848;DHT22;8756;49.29324300;8.70599800;2023-01-15T12:47:37;6.20;99.90
5848;DHT22;8756;49.29324300;8.70599800;2023-01-15T12:50:28;6.20;99.90
5848;DHT22;8756;49.29324300;8.70599800;2023-01-15T12:53:03;6.20;99.90
5848;DHT22;8756;49.29324300;8.70599800;2023-01-15T12:55:39;6.30;99.90
5848;DHT22;8756;49.29324300;8.70599800;2023-01-15T13:01:18;6.40;99.90
5848;DHT22;8756;49.29324300;8.70599800;2023-01-15T13:03:59;6.50;99.90
5848;DHT22;8756;49.29324300;8.70599800;2023-01-15T13:06:26;6.50;99.90
5848;DHT22;8756;49.29324300;8.70599800;2023-01-15T13:08:55;6.60;99.90
5848;DHT22;8756;49.29324300;8.70599800;2023-01-15T13:11:26;6.60;99.90
5848;DHT22;8756;49.29324300;8.70599800;2023-01-15T13:13:51;6.60;99.90
5848;DHT22;8756;49.29324300;8.70599800;2023-01-15T13:21:55;6.70;99.90
5848;DHT22;8756;49.29324300;8.70599800;2023-01-15T13:28:01;6.80;99.90
5848;DHT22;8756;49.29324300;8.70599800;2023-01-15T13:30:41;6.80;99.90
5848;DHT22;8756;49.29324300;8.70599800;2023-01-15T13:33:34;6.80;99.90
5848;DHT22;8756;49.29324300;8.70599800;2023-01-15T13:36:20;6.80;99.90
5848;DHT22;8756;49.29324300;8.70599800;2023-01-15T13:39:16;6.90;99.90
5848;DHT22;8756;49.29324300;8.70599800;2023-01-15T13:41:47;6.90;99.90
5848;DHT22;8756;49.29324300;8.70599800;2023-01-15T13:44:36;6.90;99.90
5848;DHT22;8756;49.29324300;8.70599800;2023-01-15T13:47:16;6.90;99.90
5848;DHT22;8756;49.29324300;8.70599800;2023-01-15T13:49:51;7.00;99.90
5848;DHT22;8756;49.29324300;8.70599800;2023-01-15T13:52:28;6.90;99.90
5848;DHT22;8756;49.29324300;8.70599800;2023-01-15T13:54:59;6.90;99.90
5848;DHT22;8756;49.29324300;8.70599800;2023-01-15T13:57:38;6.90;99.90
5848;DHT22;8756;49.29324300;8.70599800;2023-01-15T14:00:32;6.90;99.90
5848;DHT22;8756;49.29324300;8.70599800;2023-01-15T14:03:02;6.90;99.90
5848;DHT22;8756;49.29324300;8.70599800;2023-01-15T14:05:56;6.90;99.90
5848;DHT22;8756;49.29324300;8.70599800;2023-01-15T14:08:43;6.90;99.90
5848;DHT22;8756;49.29324300;8.70599800;2023-01-15T14:14:33;6.90;99.90
5848;DHT22;8756;49.29324300;8.70599800;2023-01-15T14:23:24;7.00;99.90
5848;DHT22;8756;49.29324300;8.70599800;2023-01-15T14:28:58;7.00;99.90
5848;DHT22;8756;49.29324300;8.70599800;2023-01-15T14:34:25;7.00;99.90
5848;DHT22;8756;49.29324300;8.70599800;2023-01-15T14:37:04;7.00;99.90
5848;DHT22;8756;49.29324300;8.70599800;2023-01-15T14:39:51;7.00;99.90
5848;DHT22;8756;49.29324300;8.70599800;2023-01-15T14:45:14;7.00;99.90
5848;DHT22;8756;49.29324300;8.70599800;2023-01-15T14:47:47;7.00;99.90
5848;DHT22;8756;49.29324300;8.70599800;2023-01-15T14:50:34;6.90;99.90
5848;DHT22;8756;49.29324300;8.70599800;2023-01-15T14:55:49;6.90;99.90
5848;DHT22;8756;49.29324300;8.70599800;2023-01-15T14:58:48;6.80;99.90
5848;DHT22;8756;49.29324300;8.70599800;2023-01-15T15:04:24;6.90;99.90
5848;DHT22;8756;49.29324300;8.70599800;2023-01-15T15:07:00;6.80;99.90
5848;DHT22;8756;49.29324300;8.70599800;2023-01-15T15:09:41;6.80;99.90
5848;DHT22;8756;49.29324300;8.70599800;2023-01-15T15:12:31;6.80;99.90
5848;DHT22;8756;49.29324300;8.70599800;2023-01-15T15:18:25;6.70;99.90
5848;DHT22;8756;49.29324300;8.70599800;2023-01-15T15:21:02;6.70;99.90
5848;DHT22;8756;49.29324300;8.70599800;2023-01-15T15:26:53;6.60;99.90
5848;DHT22;8756;49.29324300;8.70599800;2023-01-15T15:29:19;6.60;99.90
5848;DHT22;8756;49.29324300;8.70599800;2023-01-15T15:37:02;6.50;99.90
5848;DHT22;8756;49.29324300;8.70599800;2023-01-15T15:39:44;6.50;99.90
5848;DHT22;8756;49.29324300;8.70599800;2023-01-15T15:42:24;6.50;99.90
5848;DHT22;8756;49.29324300;8.70599800;2023-01-15T15:45:24;6.50;99.90
5848;DHT22;8756;49.29324300;8.70599800;2023-01-15T15:48:20;6.50;99.90
5848;DHT22;8756;49.29324300;8.70599800;2023-01-15T15:51:33;6.50;99.90
5848;DHT22;8756;49.29324300;8.70599800;2023-01-15T15:54:22;6.50;99.90
5848;DHT22;8756;49.29324300;8.70599800;2023-01-15T15:56:57;6.50;99.90
5848;DHT22;8756;49.29324300;8.70599800;2023-01-15T16:04:54;6.50;99.90
5848;DHT22;8756;49.29324300;8.70599800;2023-01-15T16:07:26;6.50;99.90
5848;DHT22;8756;49.29324300;8.70599800;2023-01-15T16:10:17;6.50;99.90
5848;DHT22;8756;49.29324300;8.70599800;2023-01-15T16:12:47;6.50;99.90
5848;DHT22;8756;49.29324300;8.70599800;2023-01-15T16:15:35;6.50;99.90
5848;DHT22;8756;49.29324300;8.70599800;2023-01-15T16:18:04;6.50;99.90
5848;DHT22;8756;49.29324300;8.70599800;2023-01-15T16:20:31;6.50;99.90
5848;DHT22;8756;49.29324300;8.70599800;2023-01-15T16:23:02;6.50;99.90
5848;DHT22;8756;49.29324300;8.70599800;2023-01-15T16:25:33;6.40;99.90
5848;DHT22;8756;49.29324300;8.70599800;2023-01-15T16:28:03;6.40;99.90
5848;DHT22;8756;49.29324300;8.70599800;2023-01-15T16:30:30;6.40;99.90